Time;durP1;ratioP1;P1;durP2;ratioP2;P2;SDS_P1;SDS_P2;PMS_P1;PMS_P2;Temp;Humidity;BMP_temperature;BMP_pressure;BME280_temperature;BME280_humidity;BME280_pressure;Samples;Min_cycle;Max_cycle;Signal;HPM_P1;HPM_P2
2022/11/10 00:00:09;;;;;;;15.00;11.20;;;12.10;67.80;;;;;;5085918;27;46440;-66
2022/11/10 00:02:34;;;;;;;13.60;11.03;;;12.10;66.60;;;;;;5086271;27;47484;-66
2022/11/10 00:05:00;;;;;;;14.87;10.87;;;12.10;67.70;;;;;;5084226;27;46793;-67
2022/11/10 00:07:27;;;;;;;19.23;10.90;;;12.10;67.60;;;;;;5081113;27;46383;-65
2022/11/10 00:09:53;;;;;;;15.80;11.97;;;12.10;67.60;;;;;;5085391;27;46474;-66
2022/11/10 00:12:19;;;;;;;18.57;11.80;;;12.20;66.60;;;;;;5089185;27;47334;-65
2022/11/10 00:17:29;;;;;;;15.47;10.73;;;12.20;67.70;;;;;;5088806;27;46815;-65
2022/11/10 00:19:55;;;;;;;16.97;11.30;;;12.10;67.60;;;;;;5090364;27;45924;-66
2022/11/10 00:22:21;;;;;;;18.70;12.87;;;12.10;66.50;;;;;;5087841;27;47026;-65
2022/11/10 00:24:46;;;;;;;17.87;11.80;;;12.10;67.70;;;;;;5086571;27;46572;-66
2022/11/10 00:27:13;;;;;;;17.43;11.70;;;12.10;68.90;;;;;;5090251;27;45964;-65
2022/11/10 00:29:40;;;;;;;16.07;11.20;;;12.10;67.80;;;;;;5087910;27;46429;-65
2022/11/10 00:32:05;;;;;;;19.17;12.10;;;12.10;66.90;;;;;;5090126;27;46793;-65
2022/11/10 00:34:31;;;;;;;17.30;10.90;;;12.00;69.10;;;;;;5087790;27;46123;-65
2022/11/10 00:36:57;;;;;;;15.67;10.87;;;12.10;68.10;;;;;;5089802;27;46497;-66
2022/11/10 00:39:22;;;;;;;16.90;12.40;;;12.00;68.00;;;;;;5088576;27;45862;-65
2022/11/10 00:41:48;;;;;;;14.80;10.40;;;12.00;67.10;;;;;;5088804;27;48264;-64
2022/11/10 00:44:14;;;;;;;15.50;10.90;;;12.00;68.20;;;;;;5084549;27;46628;-66
2022/11/10 00:46:39;;;;;;;18.27;11.50;;;12.00;68.20;;;;;;5090310;27;46323;-66
2022/11/10 00:49:05;;;;;;;15.53;10.17;;;12.00;68.40;;;;;;5089557;27;46644;-66
2022/11/10 00:51:31;;;;;;;14.60;10.13;;;12.00;68.20;;;;;;5090310;27;47192;-66
2022/11/10 00:53:56;;;;;;;12.70;9.90;;;12.00;68.20;;;;;;5087970;27;46280;-65
2022/11/10 00:56:23;;;;;;;15.20;10.33;;;12.00;68.10;;;;;;5088082;27;46430;-67
2022/11/10 00:58:49;;;;;;;14.77;10.50;;;12.10;68.00;;;;;;5086880;27;46484;-67
2022/11/10 01:01:16;;;;;;;16.00;10.30;;;11.90;68.00;;;;;;5089515;27;47316;-66
2022/11/10 01:03:42;;;;;;;17.40;10.63;;;12.00;68.10;;;;;;5089266;27;46427;-65
2022/11/10 01:06:13;;;;;;;14.50;9.80;;;12.10;68.10;;;;;;5087041;27;46496;-67
2022/11/10 01:08:40;;;;;;;16.67;10.63;;;12.10;68.20;;;;;;5088618;27;46509;-65
2022/11/10 01:11:26;;;;;;;13.57;9.73;;;12.10;68.20;;;;;;5091486;27;46484;-65
2022/11/10 01:13:53;;;;;;;11.87;9.47;;;12.10;68.20;;;;;;5087234;27;46721;-64
2022/11/10 01:16:30;;;;;;;13.20;9.80;;;12.10;68.20;;;;;;5087582;27;45870;-65
2022/11/10 01:19:01;;;;;;;11.70;8.70;;;12.10;68.20;;;;;;5085802;27;46353;-65
2022/11/10 01:21:27;;;;;;;14.80;10.30;;;12.10;67.20;;;;;;5087650;27;46560;-66
2022/11/10 01:23:53;;;;;;;12.60;9.40;;;12.10;68.20;;;;;;5083029;27;47021;-65
2022/11/10 01:26:19;;;;;;;12.70;8.20;;;12.10;68.40;;;;;;5085510;27;46432;-66
2022/11/10 01:28:46;;;;;;;14.80;8.33;;;12.00;68.60;;;;;;5086947;27;46483;-65
2022/11/10 01:31:14;;;;;;;11.10;7.87;;;11.90;68.00;;;;;;5083289;27;47380;-64
2022/11/10 01:33:40;;;;;;;14.87;8.50;;;11.90;69.00;;;;;;5087589;27;46440;-65
2022/11/10 01:36:07;;;;;;;12.97;8.37;;;11.90;69.30;;;;;;5089575;27;46502;-66
2022/11/10 01:38:35;;;;;;;11.87;8.50;;;11.90;69.60;;;;;;5088128;27;46471;-66
2022/11/10 01:41:01;;;;;;;10.47;6.97;;;11.90;68.90;;;;;;5086581;27;47737;-64
2022/11/10 01:43:28;;;;;;;16.43;7.73;;;11.90;70.00;;;;;;5086235;27;46270;-64
2022/11/10 01:46:03;;;;;;;11.30;4.83;;;11.70;70.40;;;;;;5087552;27;46538;-66
2022/11/10 01:48:36;;;;;;;5.00;3.10;;;11.50;71.20;;;;;;5086993;27;46609;-64
2022/11/10 01:51:08;;;;;;;7.30;2.70;;;11.40;71.70;;;;;;5087143;27;46884;-65
2022/11/10 01:53:39;;;;;;;4.10;2.30;;;11.30;71.90;;;;;;5086738;27;46379;-67
2022/11/10 01:56:07;;;;;;;2.93;1.90;;;11.20;72.30;;;;;;5088949;27;46365;-67
2022/11/10 01:58:38;;;;;;;3.47;1.90;;;11.10;72.30;;;;;;5086650;27;46442;-65
2022/11/10 02:01:08;;;;;;;4.80;1.60;;;11.10;72.40;;;;;;5088552;27;46709;-65
2022/11/10 02:03:45;;;;;;;5.03;2.40;;;11.10;72.50;;;;;;5084904;27;46424;-64
2022/11/10 02:06:12;;;;;;;7.20;2.23;;;11.10;72.70;;;;;;5087172;27;45761;-65
2022/11/10 02:08:40;;;;;;;4.50;2.23;;;11.10;72.80;;;;;;5088552;27;46578;-65
2022/11/10 02:11:05;;;;;;;3.30;2.30;;;11.10;71.80;;;;;;5086006;27;46653;-67
2022/11/10 02:13:31;;;;;;;6.37;2.37;;;11.00;72.70;;;;;;5089450;27;46437;-66
2022/11/10 02:15:57;;;;;;;3.10;2.00;;;11.00;72.30;;;;;;5088705;27;46418;-64
2022/11/10 02:18:22;;;;;;;3.13;2.00;;;11.00;72.40;;;;;;5090721;27;46410;-66
2022/11/10 02:20:48;;;;;;;3.07;1.57;;;11.00;71.40;;;;;;5087837;27;46752;-65
2022/11/10 02:23:33;;;;;;;2.53;1.70;;;11.00;72.30;;;;;;5088566;27;46364;-64
2022/11/10 02:26:04;;;;;;;2.20;1.40;;;11.10;72.30;;;;;;5084022;27;46400;-65
2022/11/10 02:28:35;;;;;;;5.07;1.57;;;11.10;71.90;;;;;;5089774;27;46404;-64
2022/11/10 02:31:01;;;;;;;3.83;2.07;;;11.10;71.60;;;;;;5088083;27;47065;-67
2022/11/10 02:33:26;;;;;;;3.73;1.83;;;11.10;71.50;;;;;;5084391;27;46394;-65
2022/11/10 02:35:52;;;;;;;4.27;2.07;;;11.10;71.40;;;;;;5088404;27;46405;-65
2022/11/10 02:38:18;;;;;;;4.13;2.00;;;11.20;71.20;;;;;;5087279;27;46402;-66
2022/11/10 02:40:43;;;;;;;4.63;2.00;;;11.30;71.00;;;;;;5088427;27;46605;-65
2022/11/10 02:43:12;;;;;;;3.57;2.17;;;11.30;70.70;;;;;;5087437;27;46521;-65
2022/11/10 02:45:43;;;;;;;3.80;1.80;;;11.30;70.50;;;;;;5086848;27;46507;-65
2022/11/10 02:48:10;;;;;;;2.80;1.87;;;11.40;70.60;;;;;;5085744;27;46258;-67
2022/11/10 02:50:36;;;;;;;5.10;2.00;;;11.40;69.30;;;;;;5086667;27;46450;-66
2022/11/10 02:53:01;;;;;;;4.73;1.73;;;11.40;70.20;;;;;;5087229;27;46391;-66
2022/11/10 02:55:27;;;;;;;2.20;1.57;;;11.50;70.10;;;;;;5086918;27;46440;-66
2022/11/10 02:57:53;;;;;;;3.17;1.53;;;11.50;70.00;;;;;;5088560;27;46380;-64
2022/11/10 03:00:18;;;;;;;6.83;1.83;;;11.60;70.00;;;;;;5084309;27;47493;-66
2022/11/10 03:02:44;;;;;;;2.50;1.50;;;11.60;68.60;;;;;;5084274;27;45854;-64
2022/11/10 03:05:10;;;;;;;2.30;1.50;;;11.70;69.60;;;;;;5084253;27;46565;-66
2022/11/10 03:07:36;;;;;;;4.83;1.60;;;11.70;69.40;;;;;;5083247;27;46827;-65
2022/11/10 03:10:01;;;;;;;3.03;1.73;;;11.70;69.40;;;;;;5084782;27;46593;-66
2022/11/10 03:12:27;;;;;;;3.47;2.17;;;11.60;68.30;;;;;;5090663;27;46482;-66
2022/11/10 03:14:52;;;;;;;3.70;2.00;;;11.70;69.50;;;;;;5085466;27;46505;-65
2022/11/10 03:17:18;;;;;;;2.47;1.83;;;11.70;68.40;;;;;;5085348;27;46683;-65
2022/11/10 03:19:43;;;;;;;2.80;2.10;;;11.70;70.50;;;;;;5087660;27;46329;-65
2022/11/10 03:22:09;;;;;;;4.50;2.00;;;11.70;68.20;;;;;;5086323;27;46394;-65
2022/11/10 03:24:35;;;;;;;3.70;1.80;;;11.70;69.50;;;;;;5085638;27;45930;-67
2022/11/10 03:27:00;;;;;;;8.43;2.30;;;11.60;69.80;;;;;;5086928;27;45959;-65
2022/11/10 03:29:26;;;;;;;4.10;1.87;;;11.50;69.80;;;;;;5084520;27;46613;-66
2022/11/10 03:31:52;;;;;;;4.90;1.97;;;11.50;68.80;;;;;;5083257;27;46730;-63
2022/11/10 03:34:17;;;;;;;3.53;2.20;;;11.50;68.80;;;;;;5086098;27;46480;-66
2022/11/10 03:36:43;;;;;;;5.03;2.47;;;11.50;69.80;;;;;;5088159;27;46431;-64
2022/11/10 03:39:09;;;;;;;4.17;1.93;;;11.40;69.70;;;;;;5085078;27;47304;-65
2022/11/10 03:41:35;;;;;;;4.27;2.00;;;11.50;68.80;;;;;;5080905;27;46359;-67
2022/11/10 03:44:00;;;;;;;5.03;2.37;;;11.50;69.70;;;;;;5081677;27;46339;-67
2022/11/10 03:46:26;;;;;;;7.43;2.80;;;11.50;69.60;;;;;;5086758;27;45981;-65
2022/11/10 03:48:52;;;;;;;3.73;2.20;;;11.50;69.60;;;;;;5086183;27;46512;-65
2022/11/10 03:51:17;;;;;;;2.80;2.00;;;11.40;68.50;;;;;;5083163;27;46368;-66
2022/11/10 03:53:43;;;;;;;2.70;2.10;;;11.40;69.60;;;;;;5085910;27;46140;-64
2022/11/10 03:56:08;;;;;;;3.93;2.13;;;11.30;69.90;;;;;;5088621;27;46348;-65
2022/11/10 03:58:34;;;;;;;4.53;1.90;;;11.20;70.30;;;;;;5087313;27;46754;-65
2022/11/10 04:01:00;;;;;;;6.53;1.90;;;11.00;69.70;;;;;;5087603;27;46408;-64
2022/11/10 04:03:25;;;;;;;6.20;1.83;;;11.00;69.80;;;;;;5085837;27;46409;-63
2022/11/10 04:17:03;;;;;;;3.50;2.07;;;10.90;70.90;;;;;;5052545;27;46822;-64
2022/11/10 04:19:29;;;;;;;7.57;2.37;;;10.90;70.60;;;;;;5085381;27;47119;-67
2022/11/10 04:21:55;;;;;;;10.33;2.70;;;10.90;69.60;;;;;;5087703;27;46439;-65
2022/11/10 04:24:21;;;;;;;4.20;2.70;;;11.00;70.70;;;;;;5081704;27;46375;-65
2022/11/10 04:26:47;;;;;;;8.00;3.13;;;11.00;70.50;;;;;;5087207;27;46569;-64
2022/11/10 04:29:15;;;;;;;8.50;3.13;;;11.00;70.50;;;;;;5084572;27;46775;-65
2022/11/10 04:31:42;;;;;;;6.63;3.07;;;11.00;69.40;;;;;;5084659;27;46326;-65
2022/11/10 04:34:11;;;;;;;6.80;2.87;;;11.00;70.50;;;;;;5087199;27;46176;-66
2022/11/10 04:36:39;;;;;;;3.87;2.60;;;11.00;70.50;;;;;;5081427;27;46313;-65
2022/11/10 04:39:06;;;;;;;10.00;3.20;;;10.90;70.30;;;;;;5087952;27;47144;-65
2022/11/10 04:41:32;;;;;;;7.43;3.07;;;10.90;69.60;;;;;;5083106;27;46432;-64
2022/11/10 04:43:59;;;;;;;5.03;2.70;;;10.90;70.60;;;;;;5087007;27;46855;-65
2022/11/10 04:46:28;;;;;;;9.63;3.67;;;10.90;70.70;;;;;;5089405;27;45829;-65
2022/11/10 04:48:54;;;;;;;4.80;2.93;;;10.90;69.80;;;;;;5088491;27;46281;-64
2022/11/10 04:51:29;;;;;;;5.47;2.90;;;10.90;69.80;;;;;;5088823;27;46456;-65
2022/11/10 04:53:55;;;;;;;7.30;2.90;;;10.90;70.70;;;;;;5086641;27;46487;-65
2022/11/10 04:56:23;;;;;;;6.43;3.10;;;10.80;70.70;;;;;;5085066;27;46747;-66
2022/11/10 04:58:49;;;;;;;3.83;2.67;;;10.80;70.80;;;;;;5085368;27;46811;-64
2022/11/10 05:01:21;;;;;;;7.27;2.50;;;10.80;69.70;;;;;;5087176;27;46460;-64
2022/11/10 05:03:47;;;;;;;9.27;3.10;;;10.90;70.80;;;;;;5088261;27;46405;-65
2022/11/10 05:06:14;;;;;;;3.87;2.50;;;10.90;70.90;;;;;;5087186;27;46467;-65
2022/11/10 05:08:41;;;;;;;4.13;2.73;;;10.80;70.80;;;;;;5090613;27;46694;-65
2022/11/10 05:11:07;;;;;;;4.37;3.10;;;10.80;69.80;;;;;;5089066;27;46339;-65
2022/11/10 05:13:33;;;;;;;6.10;3.33;;;10.80;70.90;;;;;;5089495;27;46648;-66
2022/11/10 05:15:58;;;;;;;11.80;3.40;;;10.80;70.90;;;;;;5085566;27;46265;-64
2022/11/10 05:18:24;;;;;;;5.10;3.40;;;10.80;70.80;;;;;;5088221;27;47696;-64
2022/11/10 05:20:50;;;;;;;8.23;3.27;;;10.90;69.60;;;;;;5092366;27;46485;-65
2022/11/10 05:26:00;;;;;;;6.10;3.40;;;10.90;70.50;;;;;;5090045;27;46673;-63
2022/11/10 05:28:26;;;;;;;5.70;3.03;;;11.00;70.30;;;;;;5088973;27;47579;-66
2022/11/10 05:30:51;;;;;;;6.40;3.70;;;11.00;69.40;;;;;;5089301;27;46541;-64
2022/11/10 05:33:17;;;;;;;5.93;3.27;;;11.00;70.50;;;;;;5089239;27;46466;-64
2022/11/10 05:35:43;;;;;;;6.17;3.50;;;11.00;70.30;;;;;;5088809;27;46829;-64
2022/11/10 05:38:08;;;;;;;10.40;3.50;;;11.00;70.10;;;;;;5120826;27;47771;-64
2022/11/10 05:40:35;;;;;;;25.63;14.67;;;11.10;69.00;;;;;;5087131;27;46403;-64
2022/11/10 05:43:01;;;;;;;343.17;166.83;;;11.10;70.00;;;;;;5086827;27;46361;-64
2022/11/10 05:45:27;;;;;;;8.27;5.40;;;11.10;69.90;;;;;;5087333;27;46443;-64
2022/11/10 05:47:54;;;;;;;11.63;5.30;;;11.10;70.00;;;;;;5087774;27;49199;-65
2022/11/10 05:50:21;;;;;;;13.80;7.70;;;;;;;;;;5091433;27;46687;-65
2022/11/10 05:52:51;;;;;;;15.90;8.63;;;11.00;69.40;;;;;;5088131;27;45949;-64
2022/11/10 05:55:20;;;;;;;13.90;5.83;;;10.90;70.80;;;;;;5088645;27;46328;-64
2022/11/10 05:57:47;;;;;;;9.50;4.40;;;10.80;70.90;;;;;;5089476;27;47138;-65
2022/11/10 06:00:20;;;;;;;5.30;4.10;;;10.60;71.40;;;;;;5086543;27;46412;-63
2022/11/10 06:02:55;;;;;;;11.90;7.07;;;10.40;71.00;;;;;;5086975;27;46340;-65
2022/11/10 06:05:20;;;;;;;7.50;4.93;;;10.30;72.80;;;;;;5088434;27;46516;-65
2022/11/10 06:07:46;;;;;;;10.70;6.30;;;10.20;73.20;;;;;;5089385;27;46540;-66
2022/11/10 06:10:12;;;;;;;12.37;7.17;;;10.00;73.50;;;;;;5090283;27;46580;-64
2022/11/10 06:12:37;;;;;;;16.10;9.10;;;9.80;73.70;;;;;;5089232;27;46431;-64
2022/11/10 06:15:04;;;;;;;13.60;8.27;;;9.80;75.10;;;;;;5083463;27;46462;-63
2022/11/10 06:17:30;;;;;;;9.00;5.10;;;9.70;75.20;;;;;;5088666;27;47150;-65
2022/11/10 06:19:55;;;;;;;11.20;5.30;;;9.70;75.50;;;;;;5086756;27;46260;-65
2022/11/10 06:22:21;;;;;;;11.10;5.90;;;9.50;74.60;;;;;;5088262;27;46294;-65
2022/11/10 06:24:47;;;;;;;14.33;5.70;;;9.50;75.70;;;;;;5086447;27;46788;-64
2022/11/10 06:27:12;;;;;;;11.67;6.60;;;9.40;75.40;;;;;;5089463;27;46543;-65
2022/11/10 06:29:38;;;;;;;18.30;8.60;;;9.50;75.30;;;;;;5086605;27;46475;-66
2022/11/10 06:32:03;;;;;;;25.37;8.33;;;9.60;73.60;;;;;;5084314;27;45849;-64
2022/11/10 06:34:29;;;;;;;11.23;7.00;;;9.70;74.50;;;;;;5085852;27;46363;-66
2022/11/10 06:36:54;;;;;;;16.17;7.20;;;9.80;74.10;;;;;;5089130;27;46297;-65
2022/11/10 06:39:20;;;;;;;14.93;9.10;;;9.80;73.70;;;;;;5086276;27;46454;-65
2022/11/10 06:41:46;;;;;;;7.57;4.50;;;9.80;72.60;;;;;;5087477;27;45991;-64
2022/11/10 06:44:11;;;;;;;11.40;5.90;;;9.70;73.80;;;;;;5084802;27;45960;-64
2022/11/10 06:46:37;;;;;;;9.67;6.07;;;9.60;74.10;;;;;;5086307;27;47653;-64
2022/11/10 06:49:03;;;;;;;10.80;5.70;;;9.50;74.60;;;;;;5086677;27;46412;-65
2022/11/10 06:51:28;;;;;;;10.77;5.80;;;9.40;73.90;;;;;;5085738;27;45878;-63
2022/11/10 06:53:54;;;;;;;18.80;7.27;;;9.30;75.10;;;;;;5081410;27;46132;-66
2022/11/10 06:56:20;;;;;;;14.67;6.50;;;9.30;74.80;;;;;;5088799;27;48163;-68
2022/11/10 06:58:45;;;;;;;8.30;4.40;;;9.30;75.00;;;;;;5079075;27;46511;-67
2022/11/10 07:01:11;;;;;;;6.90;4.20;;;9.10;74.30;;;;;;5084788;27;46354;-66
2022/11/10 07:03:36;;;;;;;9.23;4.10;;;9.10;75.50;;;;;;5082600;27;46649;-65
2022/11/10 07:06:02;;;;;;;8.17;5.00;;;8.90;74.50;;;;;;5081375;27;48119;-64
2022/11/10 07:08:28;;;;;;;8.83;4.83;;;9.00;75.60;;;;;;5081861;27;46628;-67
2022/11/10 07:10:54;;;;;;;9.63;4.53;;;8.90;74.50;;;;;;5085785;27;46315;-66
2022/11/10 07:13:21;;;;;;;8.47;5.23;;;9.00;75.50;;;;;;5081865;27;46393;-66
2022/11/10 07:15:46;;;;;;;9.80;4.03;;;9.00;75.40;;;;;;5081990;27;46440;-65
2022/11/10 07:18:12;;;;;;;10.80;6.10;;;9.00;75.30;;;;;;5085263;27;46344;-65
2022/11/10 07:20:38;;;;;;;9.43;3.60;;;9.00;74.30;;;;;;5079270;27;46524;-64
2022/11/10 07:23:05;;;;;;;7.63;4.67;;;9.00;75.20;;;;;;5083396;27;46536;-66
2022/11/10 07:25:34;;;;;;;11.23;3.97;;;9.00;75.10;;;;;;5082012;27;46671;-66
2022/11/10 07:28:01;;;;;;;14.87;5.37;;;9.10;75.10;;;;;;5080381;27;45888;-66
2022/11/10 07:30:28;;;;;;;15.30;5.80;;;9.10;74.00;;;;;;5080463;27;46348;-65
2022/11/10 07:32:57;;;;;;;15.20;6.00;;;9.10;75.00;;;;;;5078977;27;46106;-64
2022/11/10 07:35:23;;;;;;;9.37;4.47;;;9.20;75.00;;;;;;5080390;27;47429;-67
2022/11/10 07:37:49;;;;;;;8.37;5.10;;;9.30;74.90;;;;;;5080031;27;46294;-66
2022/11/10 07:40:15;;;;;;;13.40;8.73;;;9.30;74.80;;;;;;5080557;27;46604;-65
2022/11/10 07:42:40;;;;;;;10.67;6.30;;;9.30;73.70;;;;;;5083482;27;46569;-63
2022/11/10 07:45:06;;;;;;;7.53;5.03;;;9.50;74.90;;;;;;5083281;27;46655;-66
2022/11/10 07:47:32;;;;;;;8.13;4.80;;;9.40;74.70;;;;;;5081726;27;46583;-65
2022/11/10 07:49:57;;;;;;;7.10;3.90;;;9.50;74.60;;;;;;5082926;27;46765;-66
2022/11/10 07:52:23;;;;;;;11.00;5.60;;;9.60;73.30;;;;;;5081596;27;46543;-65
2022/11/10 07:54:49;;;;;;;8.83;6.83;;;9.70;74.40;;;;;;5076971;27;47192;-66
2022/11/10 07:57:14;;;;;;;36.40;23.60;;;9.80;74.30;;;;;;5080311;27;46464;-66
2022/11/10 07:59:40;;;;;;;37.10;27.60;;;9.90;74.30;;;;;;5079674;27;46357;-67
2022/11/10 08:02:11;;;;;;;23.50;15.63;;;10.00;73.30;;;;;;5079516;27;46921;-65
2022/11/10 08:04:36;;;;;;;14.50;9.00;;;10.40;73.60;;;;;;5077844;27;47193;-65
2022/11/10 08:07:02;;;;;;;10.23;7.10;;;10.20;73.20;;;;;;5078642;27;46699;-66
2022/11/10 08:09:28;;;;;;;14.90;4.50;;;10.30;73.10;;;;;;5082122;27;46434;-65
2022/11/10 08:11:53;;;;;;;8.30;4.40;;;10.40;73.20;;;;;;5079361;27;46501;-66
2022/11/10 08:14:19;;;;;;;9.63;4.90;;;10.50;73.10;;;;;;5081661;27;46374;-65
2022/11/10 08:16:44;;;;;;;7.30;3.17;;;10.60;73.00;;;;;;5085285;27;46650;-65
2022/11/10 08:19:10;;;;;;;7.20;3.63;;;10.70;73.00;;;;;;5086105;27;45919;-65
2022/11/10 08:21:36;;;;;;;12.63;3.30;;;10.80;72.00;;;;;;5080255;27;46745;-65
2022/11/10 08:24:01;;;;;;;6.47;3.27;;;10.80;73.00;;;;;;5077220;27;46485;-67
2022/11/10 08:26:27;;;;;;;9.27;4.23;;;10.90;72.90;;;;;;5084317;27;46356;-65
2022/11/10 08:28:53;;;;;;;9.40;3.27;;;11.00;72.90;;;;;;5086926;27;45887;-66
2022/11/10 08:31:19;;;;;;;8.87;4.90;;;11.10;72.90;;;;;;5082249;27;46466;-66
2022/11/10 08:33:44;;;;;;;8.50;3.90;;;11.20;72.90;;;;;;5086735;27;47278;-68
2022/11/10 08:36:10;;;;;;;4.33;2.53;;;11.20;72.80;;;;;;5081886;27;46639;-65
2022/11/10 08:38:35;;;;;;;4.67;2.33;;;11.20;72.90;;;;;;5088434;27;46440;-67
2022/11/10 08:41:01;;;;;;;10.07;2.80;;;11.30;74.10;;;;;;5084372;27;46414;-64
2022/11/10 08:43:27;;;;;;;10.70;2.60;;;11.00;72.70;;;;;;5083488;27;46583;-64
2022/11/10 08:45:55;;;;;;;6.93;2.00;;;11.40;73.00;;;;;;5083940;27;46442;-62
2022/11/10 08:48:22;;;;;;;9.00;2.63;;;11.40;73.10;;;;;;5086698;27;46397;-64
2022/11/10 08:50:51;;;;;;;12.20;2.60;;;11.50;73.50;;;;;;5085758;27;46627;-63
2022/11/10 08:53:19;;;;;;;6.43;2.20;;;11.50;73.60;;;;;;5085975;27;46399;-66
2022/11/10 08:55:45;;;;;;;9.03;2.90;;;11.50;73.60;;;;;;5082324;27;46422;-64
2022/11/10 08:58:17;;;;;;;6.83;2.37;;;11.60;73.50;;;;;;5084288;27;46510;-63
2022/11/10 09:00:43;;;;;;;6.93;1.80;;;11.70;73.40;;;;;;5084917;27;45954;-64
2022/11/10 09:03:15;;;;;;;6.00;2.47;;;11.80;73.30;;;;;;5079893;27;47019;-65
2022/11/10 09:05:42;;;;;;;8.57;2.10;;;11.90;73.20;;;;;;5083571;27;46563;-65
2022/11/10 09:08:08;;;;;;;6.23;2.00;;;11.90;73.00;;;;;;5086671;27;46773;-66
2022/11/10 09:10:36;;;;;;;5.73;2.23;;;12.00;72.00;;;;;;5085158;27;46565;-65
2022/11/10 09:13:02;;;;;;;6.10;1.87;;;12.00;73.00;;;;;;5081511;27;46346;-66
2022/11/10 09:15:30;;;;;;;14.60;2.20;;;12.10;72.90;;;;;;5084688;27;46417;-65
2022/11/10 09:18:03;;;;;;;5.63;1.90;;;12.10;72.60;;;;;;5080534;27;46494;-66
2022/11/10 09:20:31;;;;;;;9.57;2.13;;;12.30;70.60;;;;;;5087683;27;46477;-67
2022/11/10 09:23:14;;;;;;;5.07;1.90;;;12.30;71.70;;;;;;5083350;27;48307;-66
2022/11/10 09:25:40;;;;;;;4.40;1.80;;;12.40;71.40;;;;;;5084222;27;46503;-69
2022/11/10 09:28:12;;;;;;;5.47;2.00;;;12.40;71.20;;;;;;5083701;27;46992;-66
2022/11/10 09:30:37;;;;;;;8.30;3.03;;;12.80;69.20;;;;;;5070708;27;46745;-67
2022/11/10 09:33:03;;;;;;;9.53;2.27;;;12.90;70.10;;;;;;5082086;27;46504;-69
2022/11/10 09:35:29;;;;;;;5.17;1.83;;;13.10;69.30;;;;;;5083490;27;46371;-67
2022/11/10 09:37:54;;;;;;;6.43;2.40;;;13.40;68.50;;;;;;5087706;27;47219;-66
2022/11/10 09:40:51;;;;;;;6.57;2.63;;;13.80;67.90;;;;;;5083300;27;46665;-66
2022/11/10 09:43:24;;;;;;;7.40;2.67;;;14.30;66.10;;;;;;5083485;27;46757;-67
2022/11/10 09:45:54;;;;;;;4.23;1.80;;;15.00;64.20;;;;;;5080673;27;46572;-68
2022/11/10 09:48:29;;;;;;;4.30;1.73;;;15.10;63.80;;;;;;5085788;27;46714;-66
2022/11/10 09:51:03;;;;;;;4.47;1.77;;;15.00;64.10;;;;;;5080692;27;46587;-67
2022/11/10 09:53:45;;;;;;;7.53;1.57;;;14.80;64.70;;;;;;5082773;27;46747;-67
2022/11/10 09:56:20;;;;;;;3.63;1.37;;;14.40;64.90;;;;;;5085153;27;46639;-67
2022/11/10 09:58:46;;;;;;;5.40;1.57;;;14.00;66.00;;;;;;5087233;27;46616;-66
2022/11/10 10:01:16;;;;;;;4.43;1.73;;;13.70;66.80;;;;;;5084078;27;46778;-67
2022/11/10 10:03:47;;;;;;;6.83;1.60;;;13.40;67.30;;;;;;5085315;27;46629;-67
2022/11/10 10:06:15;;;;;;;5.60;1.87;;;13.00;67.20;;;;;;5083565;27;46541;-65
2022/11/10 10:08:58;;;;;;;6.70;1.70;;;12.80;67.90;;;;;;5088157;27;46892;-66
2022/11/10 10:11:45;;;;;;;8.30;1.80;;;12.40;67.60;;;;;;5084064;27;46434;-66
2022/11/10 10:14:34;;;;;;;4.53;1.47;;;12.30;68.60;;;;;;5079247;27;47185;-67
2022/11/10 10:17:14;;;;;;;5.23;1.70;;;12.40;68.70;;;;;;5116765;27;46748;-67
2022/11/10 10:19:55;;;;;;;8.20;1.80;;;12.50;68.40;;;;;;5083437;27;46478;-71
2022/11/10 10:22:49;;;;;;;7.60;2.43;;;12.70;66.70;;;;;;5074614;27;46911;-68
2022/11/10 10:25:20;;;;;;;9.07;2.67;;;12.80;67.40;;;;;;5082245;27;47052;-68
2022/11/10 10:27:50;;;;;;;6.20;1.80;;;12.90;67.10;;;;;;5083902;27;46417;-68
2022/11/10 10:30:19;;;;;;;8.70;3.23;;;13.00;67.10;;;;;;5084471;27;46440;-67
2022/11/10 10:32:45;;;;;;;5.97;1.50;;;13.10;65.00;;;;;;5076365;27;47054;-69
2022/11/10 10:35:15;;;;;;;8.10;2.63;;;13.30;64.70;;;;;;5075842;27;46441;-68
2022/11/10 10:37:49;;;;;;;47.23;21.90;;;13.40;64.30;;;;;;5083528;27;46769;-68
2022/11/10 10:40:18;;;;;;;9.83;2.17;;;13.90;63.50;;;;;;5081780;27;46483;-68
2022/11/10 10:42:44;;;;;;;3.10;1.20;;;14.30;61.10;;;;;;5083843;27;46484;-68
2022/11/10 10:45:26;;;;;;;5.27;1.43;;;14.40;60.90;;;;;;5079201;27;46883;-69
2022/11/10 10:47:54;;;;;;;5.37;1.37;;;14.30;60.60;;;;;;5080804;27;46464;-64
2022/11/10 10:50:33;;;;;;;2.73;1.43;;;14.10;60.50;;;;;;5082935;27;45916;-65
2022/11/10 10:53:05;;;;;;;3.53;1.50;;;14.00;60.30;;;;;;5081027;27;47431;-64
2022/11/10 10:55:32;;;;;;;5.20;1.30;;;13.90;59.70;;;;;;5080865;27;47108;-64
2022/11/10 10:58:23;;;;;;;4.57;1.40;;;13.90;59.70;;;;;;5081593;27;45844;-66
2022/11/10 11:01:06;;;;;;;3.73;1.10;;;13.90;58.40;;;;;;5082694;27;46443;-67
2022/11/10 11:03:49;;;;;;;6.73;1.30;;;13.90;60.30;;;;;;5082868;27;46672;-64
2022/11/10 11:06:15;;;;;;;3.50;1.10;;;13.90;58.20;;;;;;5083114;27;46621;-64
2022/11/10 11:09:05;;;;;;;3.93;1.30;;;13.90;57.20;;;;;;5083486;27;46486;-65
2022/11/10 11:11:36;;;;;;;4.63;1.53;;;14.00;57.20;;;;;;5081754;27;46796;-68
2022/11/10 11:14:26;;;;;;;9.53;1.53;;;14.00;56.60;;;;;;5079428;27;46425;-69
2022/11/10 11:16:53;;;;;;;7.03;1.30;;;13.90;55.90;;;;;;5081460;27;47104;-69
2022/11/10 11:19:25;;;;;;;2.23;1.33;;;13.70;56.20;;;;;;5079730;27;46296;-66
2022/11/10 11:22:24;;;;;;;11.00;1.27;;;13.70;55.30;;;;;;5079491;27;46396;-67
2022/11/10 11:25:06;;;;;;;5.30;1.40;;;13.40;53.60;;;;;;5085164;27;46569;-65
2022/11/10 11:27:40;;;;;;;7.10;1.47;;;13.40;54.50;;;;;;5084436;27;47354;-66
2022/11/10 11:30:37;;;;;;;9.43;1.77;;;13.40;53.70;;;;;;5081531;27;46459;-68
2022/11/10 11:33:25;;;;;;;4.83;1.60;;;13.40;54.80;;;;;;5111428;27;46451;-64
2022/11/10 11:36:13;;;;;;;7.97;1.60;;;13.20;54.50;;;;;;5116877;27;46464;-66
2022/11/10 11:38:53;;;;;;;5.77;1.70;;;13.10;54.50;;;;;;5085061;27;46472;-66
2022/11/10 11:41:37;;;;;;;4.03;1.23;;;13.10;54.50;;;;;;5096821;27;46440;-66
2022/11/10 11:44:29;;;;;;;7.37;1.80;;;13.20;54.60;;;;;;5078541;27;46288;-68
2022/11/10 11:47:25;;;;;;;5.23;1.60;;;13.50;54.90;;;;;;5086051;27;46587;-67
2022/11/10 11:50:09;;;;;;;4.70;1.40;;;13.70;54.00;;;;;;5080605;27;46778;-68
2022/11/10 11:53:17;;;;;;;5.00;1.50;;;13.40;51.20;;;;;;5081616;27;47339;-68
2022/11/10 11:56:16;;;;;;;5.60;1.60;;;13.20;53.50;;;;;;5081062;27;46590;-67
2022/11/10 11:58:44;;;;;;;4.77;1.10;;;13.20;54.20;;;;;;5084926;27;46809;-66
2022/11/10 12:01:37;;;;;;;4.07;1.27;;;13.10;54.40;;;;;;5082607;27;46700;-67
2022/11/10 12:04:40;;;;;;;3.50;1.30;;;13.10;54.50;;;;;;5082928;27;45915;-67
2022/11/10 12:07:23;;;;;;;4.20;1.53;;;13.30;54.60;;;;;;5073209;27;45912;-69
2022/11/10 12:09:54;;;;;;;2.47;1.17;;;13.40;54.60;;;;;;5068966;27;46723;-69
2022/11/10 12:12:44;;;;;;;6.83;1.27;;;13.20;51.50;;;;;;5078598;27;46697;-66
2022/11/10 12:15:10;;;;;;;4.17;1.23;;;13.10;53.00;;;;;;5081133;27;46487;-66
2022/11/10 12:17:50;;;;;;;10.70;3.57;;;13.00;53.60;;;;;;5080955;27;46357;-64
2022/11/10 12:20:18;;;;;;;3.93;1.33;;;12.80;54.20;;;;;;5083030;27;46363;-67
2022/11/10 12:23:12;;;;;;;3.10;1.20;;;12.80;53.20;;;;;;5082335;27;46306;-67
2022/11/10 12:25:57;;;;;;;6.60;2.37;;;12.90;54.30;;;;;;5080354;27;45913;-68
2022/11/10 12:28:34;;;;;;;11.63;3.23;;;12.90;54.40;;;;;;5082392;27;46393;-67
2022/11/10 12:31:03;;;;;;;12.03;4.67;;;12.80;54.20;;;;;;5080763;27;47540;-65
2022/11/10 12:33:44;;;;;;;5.27;1.63;;;12.80;54.20;;;;;;5081714;27;47788;-65
2022/11/10 12:36:16;;;;;;;12.03;1.70;;;12.90;54.40;;;;;;5113883;27;46463;-67
2022/11/10 12:38:57;;;;;;;10.63;4.33;;;13.00;54.30;;;;;;5084062;27;46343;-66
2022/11/10 12:41:25;;;;;;;5.93;1.50;;;13.00;54.20;;;;;;5081139;27;47159;-65
2022/11/10 12:43:50;;;;;;;4.43;1.70;;;12.90;53.90;;;;;;5078051;27;46871;-64
2022/11/10 12:46:16;;;;;;;10.70;2.50;;;12.90;54.20;;;;;;5080275;27;46471;-65
2022/11/10 12:49:14;;;;;;;61.33;33.93;;;12.90;54.00;;;;;;5078807;27;46553;-63
2022/11/10 12:51:53;;;;;;;11.40;4.23;;;12.90;53.90;;;;;;5078166;27;46228;-65
2022/11/10 12:54:20;;;;;;;4.73;2.43;;;13.00;53.90;;;;;;5077531;27;47190;-64
2022/11/10 12:57:04;;;;;;;4.87;2.50;;;13.10;53.70;;;;;;5081717;27;46009;-64
2022/11/10 12:59:33;;;;;;;4.27;1.30;;;13.20;53.30;;;;;;5080282;27;46467;-66
2022/11/10 13:02:13;;;;;;;4.10;1.90;;;13.20;53.40;;;;;;5081083;27;46638;-66
2022/11/10 13:04:39;;;;;;;5.90;1.70;;;13.20;53.30;;;;;;5076770;27;47459;-70
2022/11/10 13:07:06;;;;;;;4.80;1.60;;;13.10;53.50;;;;;;5075756;27;46937;-69
2022/11/10 13:09:34;;;;;;;4.07;1.20;;;12.90;53.80;;;;;;5079782;27;46404;-67
2022/11/10 13:12:22;;;;;;;11.30;4.00;;;12.80;54.20;;;;;;5079535;27;45868;-65